createdAt,value
2023-03-19T00:00:43.298Z,4.6
2023-03-19T00:01:53.048Z,4
2023-03-19T00:03:02.758Z,4.4
2023-03-19T00:04:11.321Z,3.6
2023-03-19T00:05:21.002Z,3.9
2023-03-19T00:06:29.721Z,3.5
2023-03-19T00:07:39.408Z,3
2023-03-19T00:08:49.103Z,3.9
2023-03-19T00:09:57.780Z,4.4
2023-03-19T00:11:07.459Z,4
2023-03-19T00:12:17.153Z,3.9
2023-03-19T00:13:26.852Z,3.6
2023-03-19T00:14:36.570Z,4
2023-03-19T00:15:45.250Z,3.5
2023-03-19T00:16:53.989Z,3.5
2023-03-19T00:18:03.660Z,3.7
2023-03-19T00:19:11.353Z,3.3
2023-03-19T00:20:21.080Z,3.6
2023-03-19T00:21:30.817Z,3.6
2023-03-19T00:22:39.492Z,4.2
2023-03-19T00:23:49.220Z,4.2
2023-03-19T00:24:58.897Z,3.7
2023-03-19T00:26:08.616Z,4.3
2023-03-19T00:27:18.307Z,4.4
2023-03-19T00:28:27.004Z,4
2023-03-19T00:29:36.680Z,3.6
2023-03-19T00:30:46.380Z,3.4
2023-03-19T00:31:55.059Z,4
2023-03-19T00:33:04.805Z,3.6
2023-03-19T00:34:13.460Z,3.1
2023-03-19T00:35:23.134Z,3.2
2023-03-19T00:36:32.819Z,3.8
2023-03-19T00:37:42.566Z,3.4
2023-03-19T00:38:52.278Z,4.3
2023-03-19T00:40:01.966Z,4.1
2023-03-19T00:41:10.747Z,4.1
2023-03-19T00:42:20.455Z,3.9
2023-03-19T00:43:30.343Z,3.8
2023-03-19T00:44:39.033Z,3.8
2023-03-19T00:45:48.784Z,3.8
2023-03-19T00:46:57.514Z,4.1
2023-03-19T00:48:07.247Z,3.1
2023-03-19T00:49:16.924Z,3.1
2023-03-19T00:50:25.630Z,3
2023-03-19T00:51:35.299Z,3.6
2023-03-19T00:52:43.020Z,3.3
2023-03-19T00:53:52.690Z,3.9
2023-03-19T00:55:02.447Z,4
2023-03-19T00:56:11.087Z,4.5
2023-03-19T00:57:20.839Z,4.3
2023-03-19T00:58:29.535Z,5.2
2023-03-19T00:59:38.204Z,4.8
2023-03-19T01:00:47.924Z,4.7
2023-03-19T01:01:56.584Z,4.8
2023-03-19T01:03:05.288Z,4.5
2023-03-19T01:04:15.064Z,3.9
2023-03-19T01:05:22.655Z,4
2023-03-19T01:06:32.387Z,4
2023-03-19T01:07:41.079Z,3.9
2023-03-19T01:08:47.747Z,4.4
2023-03-19T01:09:57.401Z,4.4
2023-03-19T01:11:07.103Z,4.4
2023-03-19T01:12:16.771Z,3.9
2023-03-19T01:13:26.464Z,3.7
2023-03-19T01:14:34.131Z,3
2023-03-19T01:15:43.804Z,2.4
2023-03-19T01:16:52.455Z,3
2023-03-19T01:18:01.229Z,3.3
2023-03-19T01:19:10.879Z,2.8
2023-03-19T01:20:18.593Z,3.3
2023-03-19T01:21:27.264Z,2.9
2023-03-19T01:22:36.930Z,3.2
2023-03-19T01:23:44.595Z,3.3
2023-03-19T01:24:54.258Z,2.8
2023-03-19T01:26:02.913Z,2.9
2023-03-19T01:27:12.640Z,2.9
2023-03-19T01:28:22.335Z,3.2
2023-03-19T01:29:30.947Z,2.7
2023-03-19T01:30:40.615Z,2.6
2023-03-19T01:31:50.302Z,2.9
2023-03-19T01:32:59.061Z,2.8
2023-03-19T01:34:08.666Z,3
2023-03-19T01:35:17.339Z,2.7
2023-03-19T01:36:26.986Z,2.7
2023-03-19T01:37:36.646Z,2.4
2023-03-19T01:38:45.352Z,2.7
2023-03-19T01:39:55.006Z,2.6
2023-03-19T01:41:04.681Z,2.1
2023-03-19T01:42:14.369Z,2.4
2023-03-19T01:43:24.116Z,2.7
2023-03-19T01:44:33.786Z,2.8
2023-03-19T01:45:43.465Z,2.6
2023-03-19T01:46:53.145Z,2.7
2023-03-19T01:48:01.806Z,2.4
2023-03-19T01:49:11.541Z,2.4
2023-03-19T01:50:21.224Z,2.7
2023-03-19T01:51:29.915Z,2.5
2023-03-19T01:52:39.595Z,2.4
2023-03-19T01:53:49.314Z,2.5
2023-03-19T01:54:58.011Z,2.4
2023-03-19T01:56:07.686Z,2.5
2023-03-19T01:57:16.420Z,2
2023-03-19T01:58:26.164Z,2.3
2023-03-19T01:59:35.836Z,2.7
2023-03-19T02:00:45.522Z,2
2023-03-19T02:01:55.267Z,2.1
2023-03-19T02:03:03.959Z,2.5
2023-03-19T02:04:13.710Z,2
2023-03-19T02:05:23.382Z,2.2
2023-03-19T02:06:32.078Z,1.7
2023-03-19T02:07:41.754Z,2.1
2023-03-19T02:08:50.487Z,2.4
2023-03-19T02:09:59.181Z,2.3
2023-03-19T02:11:08.862Z,2.1
2023-03-19T02:12:16.582Z,1.8
2023-03-19T02:13:26.334Z,2.1
2023-03-19T02:14:35.036Z,2.4
2023-03-19T02:15:43.823Z,2.8
2023-03-19T02:16:53.449Z,2.8
2023-03-19T02:18:02.127Z,3.9
2023-03-19T02:19:11.827Z,4.5
2023-03-19T02:20:21.519Z,7.5
2023-03-19T02:21:30.201Z,6.5
2023-03-19T02:22:39.934Z,3.4
2023-03-19T02:23:48.645Z,2.5
2023-03-19T02:24:58.346Z,2.3
2023-03-19T02:26:08.031Z,2.5
2023-03-19T02:27:16.702Z,2.1
2023-03-19T02:28:25.445Z,2
2023-03-19T02:29:35.116Z,2.1
2023-03-19T02:30:42.824Z,1.8
2023-03-19T02:31:52.499Z,2.5
2023-03-19T02:33:01.250Z,2.2
2023-03-19T02:34:09.941Z,2.7
2023-03-19T02:35:19.642Z,4.6
2023-03-19T02:36:28.317Z,17.1
2023-03-19T02:37:37.993Z,9.7
2023-03-19T02:38:47.729Z,2.7
2023-03-19T02:39:57.405Z,2.9
2023-03-19T02:41:07.150Z,2.8
2023-03-19T02:42:16.808Z,2.9
2023-03-19T02:43:24.548Z,3
2023-03-19T02:44:34.273Z,2.7
2023-03-19T02:45:42.959Z,2.5
2023-03-19T02:46:52.764Z,3.2
2023-03-19T02:48:02.353Z,2.8
2023-03-19T02:49:11.096Z,2.8
2023-03-19T02:50:20.794Z,3
2023-03-19T02:51:29.490Z,4.8
2023-03-19T02:52:37.201Z,2.5
2023-03-19T02:53:47.064Z,4.1
2023-03-19T02:54:55.764Z,4.3
2023-03-19T02:56:05.488Z,4.6
2023-03-19T02:57:15.227Z,3.6
2023-03-19T02:58:23.963Z,6
2023-03-19T02:59:33.667Z,6.4
2023-03-19T03:00:42.358Z,4.4
2023-03-19T03:01:51.072Z,7.7
2023-03-19T03:03:00.759Z,6.2
2023-03-19T03:04:10.460Z,6.9
2023-03-19T03:05:19.151Z,7.2
2023-03-19T03:06:27.840Z,5.5
2023-03-19T03:07:36.563Z,5.4
2023-03-19T03:08:46.322Z,5.2
2023-03-19T03:09:55.003Z,3.8
2023-03-19T03:11:03.736Z,3.9
2023-03-19T03:12:13.414Z,4.4
2023-03-19T03:13:21.123Z,6
2023-03-19T03:14:30.842Z,8.2
2023-03-19T03:15:40.628Z,7
2023-03-19T03:16:49.289Z,7.2
2023-03-19T03:17:59.035Z,7
2023-03-19T03:19:08.803Z,6.9
2023-03-19T03:20:18.514Z,6.8
2023-03-19T03:21:28.203Z,6.6
2023-03-19T03:22:35.911Z,5.1
2023-03-19T03:23:45.642Z,4.7
2023-03-19T03:24:55.323Z,4.3
2023-03-19T03:26:03.028Z,5
2023-03-19T03:27:12.701Z,5.1
2023-03-19T03:28:21.420Z,4.5
2023-03-19T03:29:31.112Z,5.7
2023-03-19T03:30:40.852Z,6.2
2023-03-19T03:31:48.587Z,4.3
2023-03-19T03:32:57.204Z,5.2
2023-03-19T03:34:06.929Z,4
2023-03-19T03:35:16.675Z,3.2
2023-03-19T03:36:26.366Z,3.2
2023-03-19T03:37:35.065Z,3.1
2023-03-19T03:38:43.777Z,2.8
2023-03-19T03:39:53.481Z,3
2023-03-19T03:41:02.202Z,2.6
2023-03-19T03:42:10.900Z,1.8
2023-03-19T03:43:20.599Z,2.3
2023-03-19T03:44:28.321Z,2.3
2023-03-19T03:45:38.035Z,2.1
2023-03-19T03:46:47.714Z,2.5
2023-03-19T03:47:56.400Z,2.5
2023-03-19T03:49:06.112Z,1.9
2023-03-19T03:50:14.814Z,2.4
2023-03-19T03:51:24.653Z,2.6
2023-03-19T03:52:34.325Z,3.2
2023-03-19T03:53:42.993Z,5.1
2023-03-19T03:54:52.737Z,6.6
2023-03-19T03:56:01.435Z,6.8
2023-03-19T03:57:10.133Z,7
2023-03-19T03:58:19.828Z,3.5
2023-03-19T03:59:28.555Z,2.7
2023-03-19T04:00:38.253Z,1.7
2023-03-19T04:01:48.089Z,2
2023-03-19T04:02:57.747Z,1.3
2023-03-19T04:04:07.480Z,1.8
2023-03-19T04:05:15.170Z,1.6
2023-03-19T04:06:24.892Z,1.6
2023-03-19T04:07:33.579Z,1.6
2023-03-19T04:08:42.273Z,1.4
2023-03-19T04:09:51.994Z,1.6
2023-03-19T04:11:00.700Z,1.8
2023-03-19T04:12:10.363Z,2.2
2023-03-19T04:13:20.073Z,1.9
2023-03-19T04:14:27.789Z,2
2023-03-19T04:15:37.527Z,2
2023-03-19T04:16:47.249Z,2
2023-03-19T04:17:56.965Z,2.2
2023-03-19T04:19:06.702Z,2.1
2023-03-19T04:20:15.427Z,1.9
2023-03-19T04:21:25.132Z,2
2023-03-19T04:22:34.845Z,2.2
2023-03-19T04:23:42.634Z,2.4
2023-03-19T04:24:52.363Z,1.9
2023-03-19T04:26:01.047Z,1.7
2023-03-19T04:27:08.736Z,1.9
2023-03-19T04:28:18.449Z,2.4
2023-03-19T04:29:27.169Z,2.4
2023-03-19T04:30:37.376Z,2.5
2023-03-19T04:31:46.622Z,2.4
2023-03-19T04:32:55.353Z,2.6
2023-03-19T04:34:05.031Z,2.2
2023-03-19T04:35:13.776Z,2.3
2023-03-19T04:36:22.472Z,2.2
2023-03-19T04:37:32.173Z,1.9
2023-03-19T04:38:39.861Z,2
2023-03-19T04:39:49.591Z,2.2
2023-03-19T04:40:59.279Z,2.5
2023-03-19T04:42:07.971Z,2.4
2023-03-19T04:43:17.686Z,2.3
2023-03-19T04:44:26.360Z,2.7
2023-03-19T04:45:34.090Z,2.9
2023-03-19T04:46:43.773Z,4.7
2023-03-19T04:47:52.506Z,6
2023-03-19T04:49:02.254Z,6.2
2023-03-19T04:50:11.957Z,5.1
2023-03-19T04:51:20.647Z,3
2023-03-19T04:52:30.357Z,2.2
2023-03-19T04:53:39.055Z,2.3
2023-03-19T04:54:47.781Z,2.3
2023-03-19T04:55:57.505Z,2.4
2023-03-19T04:57:06.157Z,2.3
2023-03-19T04:58:15.864Z,2.3
2023-03-19T04:59:25.638Z,2.2
2023-03-19T05:00:34.573Z,2.2
2023-03-19T05:01:44.086Z,2.2
2023-03-19T05:02:52.777Z,2.1
2023-03-19T05:04:00.535Z,1.9
2023-03-19T05:05:10.178Z,1.9
2023-03-19T05:06:17.865Z,2.2
2023-03-19T05:07:26.549Z,1.9
2023-03-19T05:08:36.254Z,1.8
2023-03-19T05:09:44.938Z,1.9
2023-03-19T05:10:54.690Z,2.1
2023-03-19T05:12:04.387Z,2.4
2023-03-19T05:13:14.042Z,2.1
2023-03-19T05:14:22.782Z,2
2023-03-19T05:15:31.514Z,2
2023-03-19T05:16:41.171Z,1.7
2023-03-19T05:17:50.863Z,1.9
2023-03-19T05:18:59.536Z,2.1
2023-03-19T05:20:09.315Z,2.1
2023-03-19T05:21:18.002Z,2.6
2023-03-19T05:22:25.693Z,2.8
2023-03-19T05:23:35.390Z,2.6
2023-03-19T05:24:43.103Z,2.7
2023-03-19T05:25:52.823Z,2.3
2023-03-19T05:27:02.518Z,2.5
2023-03-19T05:28:12.252Z,2.3
2023-03-19T05:29:21.927Z,2.2
2023-03-19T05:30:31.780Z,1.2
2023-03-19T05:31:40.335Z,2.1
2023-03-19T05:32:50.046Z,1.9
2023-03-19T05:33:58.771Z,1.6
2023-03-19T05:35:07.445Z,2
2023-03-19T05:36:17.158Z,1.6
2023-03-19T05:37:25.853Z,1.6
2023-03-19T05:38:35.577Z,1.9
2023-03-19T05:39:44.257Z,2
2023-03-19T05:40:52.975Z,1.7
2023-03-19T05:42:02.744Z,1.7
2023-03-19T05:43:11.442Z,2.1
2023-03-19T05:44:21.197Z,1.5
2023-03-19T05:45:30.900Z,1.6
2023-03-19T05:46:40.650Z,1.6
2023-03-19T05:47:50.310Z,1.2
2023-03-19T05:48:59.968Z,1.4
2023-03-19T05:50:08.680Z,1.4
2023-03-19T05:51:18.404Z,1.5
2023-03-19T05:52:27.087Z,1.4
2023-03-19T05:53:36.786Z,1.7
2023-03-19T05:54:46.467Z,1.6
2023-03-19T05:55:53.174Z,1.8
2023-03-19T05:57:03.510Z,2
2023-03-19T05:58:11.603Z,1.5
2023-03-19T05:59:21.306Z,1.5
2023-03-19T06:00:31.049Z,1.2
2023-03-19T06:01:39.723Z,1.8
2023-03-19T06:02:49.414Z,1.5
2023-03-19T06:03:59.114Z,1.4
2023-03-19T06:05:07.783Z,1.3
2023-03-19T06:06:17.520Z,1.5
2023-03-19T06:07:27.294Z,1.4
2023-03-19T06:08:37.005Z,1.2
2023-03-19T06:09:45.723Z,1.1
2023-03-19T06:10:53.427Z,0.9
2023-03-19T06:12:03.120Z,1.4
2023-03-19T06:13:11.814Z,1.6
2023-03-19T06:14:21.552Z,1.6
2023-03-19T06:15:31.577Z,1.6
2023-03-19T06:16:40.050Z,2.1
2023-03-19T06:17:49.743Z,2.3
2023-03-19T06:18:58.417Z,2.5
2023-03-19T06:20:07.131Z,2.5
2023-03-19T06:21:16.878Z,2.7
2023-03-19T06:22:24.572Z,2.6
2023-03-19T06:23:34.266Z,1.7
2023-03-19T06:24:44.029Z,2
2023-03-19T06:25:53.746Z,1.6
2023-03-19T06:27:03.433Z,1.7
2023-03-19T06:28:12.129Z,1.7
2023-03-19T06:29:20.943Z,1.6
2023-03-19T06:30:30.643Z,1.6
2023-03-19T06:31:39.609Z,1.5
2023-03-19T06:32:49.198Z,1.8
2023-03-19T06:33:58.860Z,1
2023-03-19T06:35:08.575Z,1.9
2023-03-19T06:36:18.746Z,1.9
2023-03-19T06:37:28.496Z,2.3
2023-03-19T06:38:38.231Z,2.8
2023-03-19T06:39:47.920Z,4.1
2023-03-19T06:40:56.656Z,5.4
2023-03-19T06:42:05.449Z,5.2
2023-03-19T06:43:14.118Z,4.7
2023-03-19T06:44:22.813Z,4.1
2023-03-19T06:45:32.646Z,3.3
2023-03-19T06:46:42.294Z,2.9
2023-03-19T06:47:53.529Z,2.8
2023-03-19T06:49:02.675Z,2.1
2023-03-19T06:50:11.347Z,2
2023-03-19T06:51:21.085Z,2.2
2023-03-19T06:52:30.828Z,2.6
2023-03-19T06:53:38.503Z,3
2023-03-19T06:54:48.210Z,2.5
2023-03-19T06:55:56.908Z,2.7
2023-03-19T06:57:05.642Z,2
2023-03-19T06:58:15.368Z,2.1
2023-03-19T06:59:24.012Z,2.3
2023-03-19T07:00:34.010Z,1.7
2023-03-19T07:01:43.421Z,1.5
2023-03-19T07:02:52.156Z,1.7
2023-03-19T07:04:01.914Z,1.4
2023-03-19T07:05:11.528Z,2.2
2023-03-19T07:06:20.343Z,1.9
2023-03-19T07:07:30.072Z,2.1
2023-03-19T07:08:37.756Z,1.6
2023-03-19T07:09:46.481Z,1.9
2023-03-19T07:10:56.186Z,1.8
2023-03-19T07:12:04.896Z,1.8
2023-03-19T07:13:14.593Z,1.7
2023-03-19T07:14:23.282Z,1.8
2023-03-19T07:15:31.005Z,1.7
2023-03-19T07:16:40.781Z,2.2
2023-03-19T07:17:49.516Z,1.5
2023-03-19T07:18:59.225Z,1.7
2023-03-19T07:20:08.940Z,1.2
2023-03-19T07:21:17.631Z,1.6
2023-03-19T07:22:27.353Z,1.5
2023-03-19T07:23:37.016Z,1.3
2023-03-19T07:24:44.704Z,1.1
2023-03-19T07:25:54.405Z,1.3
2023-03-19T07:27:02.112Z,1.6
2023-03-19T07:28:11.799Z,1.2
2023-03-19T07:29:21.510Z,1.5
2023-03-19T07:30:29.199Z,1.3
2023-03-19T07:31:38.927Z,1.6
2023-03-19T07:32:47.688Z,2.3
2023-03-19T07:33:57.345Z,1.6
2023-03-19T07:35:07.238Z,1.7
2023-03-19T07:36:16.079Z,2.2
2023-03-19T07:37:25.732Z,2.1
2023-03-19T07:38:35.423Z,1.3
2023-03-19T07:39:43.128Z,1.2
2023-03-19T07:41:01.781Z,1.6
2023-03-19T07:42:02.541Z,1.9
2023-03-19T07:43:11.209Z,1.2
2023-03-19T07:44:20.941Z,1.6
2023-03-19T07:45:30.652Z,1.7
2023-03-19T07:46:39.373Z,1.4
2023-03-19T07:47:50.330Z,1.4
2023-03-19T07:48:58.725Z,1.6
2023-03-19T07:50:08.437Z,1.1
2023-03-19T07:51:18.154Z,1.7
2023-03-19T07:52:27.936Z,1.6
2023-03-19T07:53:37.659Z,1.1
2023-03-19T07:54:46.395Z,1.4
2023-03-19T07:55:56.137Z,1.1
2023-03-19T07:57:04.848Z,1.1
2023-03-19T07:58:14.549Z,1.2
2023-03-19T07:59:24.248Z,1.2
2023-03-19T08:00:33.186Z,1.2
2023-03-19T08:01:42.696Z,1.3
2023-03-19T08:02:51.629Z,1.1
2023-03-19T08:04:00.105Z,1.1
2023-03-19T08:05:09.755Z,1.2
2023-03-19T08:06:18.478Z,1.1
2023-03-19T08:07:28.167Z,1.1
2023-03-19T08:08:37.911Z,1.2
2023-03-19T08:09:47.602Z,1.3
2023-03-19T08:10:57.409Z,1.1
2023-03-19T08:12:05.996Z,0.9
2023-03-19T08:13:13.721Z,1
2023-03-19T08:14:23.428Z,1.1
2023-03-19T08:15:31.154Z,0.9
2023-03-19T08:16:39.901Z,1
2023-03-19T08:17:49.561Z,1.2
2023-03-19T08:18:59.263Z,1.2
2023-03-19T08:20:08.944Z,1.2
2023-03-19T08:21:18.646Z,1.1
2023-03-19T08:22:26.309Z,1
2023-03-19T08:23:35.941Z,1
2023-03-19T08:24:44.646Z,0.9
2023-03-19T08:25:54.307Z,1
2023-03-19T08:27:03.988Z,1.1
2023-03-19T08:28:11.630Z,1
2023-03-19T08:29:21.295Z,0.9
2023-03-19T08:30:29.934Z,0.8
2023-03-19T08:31:37.608Z,1
2023-03-19T08:32:47.319Z,1.2
2023-03-19T08:33:55.935Z,1.1
2023-03-19T08:35:05.642Z,0.8
2023-03-19T08:36:15.317Z,0.7
2023-03-19T08:37:24.977Z,1
2023-03-19T08:38:34.666Z,0.9
2023-03-19T08:39:43.365Z,0.8
2023-03-19T08:40:53.116Z,0.7
2023-03-19T08:42:02.762Z,1.2
2023-03-19T08:43:11.436Z,1
2023-03-19T08:44:20.202Z,0.8
2023-03-19T08:45:28.846Z,0.9
2023-03-19T08:46:38.565Z,1
2023-03-19T08:47:48.219Z,1.1
2023-03-19T08:48:57.879Z,1.2
2023-03-19T08:50:07.547Z,0.6
2023-03-19T08:51:17.221Z,1.1
2023-03-19T08:52:26.887Z,1.3
2023-03-19T08:53:36.553Z,1.3
2023-03-19T08:54:46.214Z,1
2023-03-19T08:55:54.920Z,1.3
2023-03-19T08:57:04.670Z,1.2
2023-03-19T08:58:13.349Z,1.3
2023-03-19T08:59:22.012Z,1
2023-03-19T09:00:31.813Z,1.1
2023-03-19T09:01:40.444Z,1
2023-03-19T09:02:49.016Z,0.7
2023-03-19T09:03:58.699Z,1.1
2023-03-19T09:05:08.358Z,1
2023-03-19T09:06:17.048Z,1.3
2023-03-19T09:07:25.718Z,1.1
2023-03-19T09:08:35.434Z,1.3
2023-03-19T09:09:45.091Z,1.1
2023-03-19T09:10:53.826Z,1
2023-03-19T09:12:03.454Z,1
2023-03-19T09:13:13.174Z,0.9
2023-03-19T09:14:22.828Z,0.8
2023-03-19T09:15:32.854Z,0.9
2023-03-19T09:16:41.187Z,1
2023-03-19T09:17:49.848Z,0.9
2023-03-19T09:18:59.614Z,0.9
2023-03-19T09:20:08.174Z,0.7
2023-03-19T09:21:17.840Z,1
2023-03-19T09:22:27.502Z,1.2
2023-03-19T09:23:37.163Z,1.2
2023-03-19T09:24:47.207Z,1.5
2023-03-19T09:25:55.981Z,1.4
2023-03-19T09:27:04.630Z,1
2023-03-19T09:28:14.297Z,0.7
2023-03-19T09:29:22.995Z,0.7
2023-03-19T09:30:32.644Z,0.6
2023-03-19T09:31:42.399Z,0.7
2023-03-19T09:32:51.014Z,0.6
2023-03-19T09:34:00.666Z,0.7
2023-03-19T09:35:09.324Z,0.8
2023-03-19T09:36:18.085Z,0.9
2023-03-19T09:37:27.717Z,0.9
2023-03-19T09:38:35.474Z,0.8
2023-03-19T09:39:44.135Z,0.8
2023-03-19T09:40:53.788Z,1.2
2023-03-19T09:42:02.481Z,0.7
2023-03-19T09:43:12.180Z,0.7
2023-03-19T09:44:21.881Z,0.9
2023-03-19T09:45:30.576Z,0.6
2023-03-19T09:46:39.268Z,0.7
2023-03-19T09:47:48.873Z,0.6
2023-03-19T09:48:57.837Z,0.9
2023-03-19T09:50:07.485Z,0.9
2023-03-19T09:51:16.165Z,1.2
2023-03-19T09:52:25.837Z,1.1
2023-03-19T09:53:34.484Z,0.8
2023-03-19T09:54:44.172Z,0.7
2023-03-19T09:55:53.851Z,0.7
2023-03-19T09:57:02.514Z,0.5
2023-03-19T09:58:12.172Z,0.7
2023-03-19T09:59:20.838Z,0.7
2023-03-19T10:00:29.539Z,0.5
2023-03-19T10:01:39.270Z,0.8
2023-03-19T10:02:47.851Z,0.7
2023-03-19T10:03:57.548Z,0.7
2023-03-19T10:05:06.171Z,1
2023-03-19T10:06:14.834Z,0.7
2023-03-19T10:07:24.516Z,0.7
2023-03-19T10:08:32.160Z,0.6
2023-03-19T10:09:40.810Z,0.6
2023-03-19T10:10:50.484Z,0.6
2023-03-19T10:11:59.127Z,0.4
2023-03-19T10:13:08.954Z,0.9
2023-03-19T10:14:18.590Z,1.3
2023-03-19T10:15:27.296Z,1
2023-03-19T10:16:36.970Z,0.8
2023-03-19T10:17:46.678Z,0.7
2023-03-19T10:18:56.643Z,0.5
2023-03-19T10:20:05.990Z,0.4
2023-03-19T10:21:14.698Z,0.4
2023-03-19T10:22:24.391Z,0.5
2023-03-19T10:23:33.042Z,0.8
2023-03-19T10:24:40.699Z,0.7
2023-03-19T10:25:50.422Z,0.7
2023-03-19T10:26:58.079Z,0.6
2023-03-19T10:28:06.737Z,0.6
2023-03-19T10:29:16.411Z,0.5
2023-03-19T10:30:25.051Z,0.8
2023-03-19T10:31:34.801Z,0.6
2023-03-19T10:32:43.499Z,0.5
2023-03-19T10:33:52.103Z,0.6
2023-03-19T10:35:01.751Z,0.6
2023-03-19T10:36:12.913Z,0.6
2023-03-19T10:37:21.126Z,0.6
2023-03-19T10:38:30.794Z,0.6
2023-03-19T10:39:39.439Z,0.4
2023-03-19T10:40:49.116Z,0.3
2023-03-19T10:41:58.786Z,0.6
2023-03-19T10:43:06.448Z,0.5
2023-03-19T10:44:16.110Z,0.3
2023-03-19T10:45:25.789Z,0.5
2023-03-19T10:46:35.490Z,0.6
2023-03-19T10:47:45.139Z,0.3
2023-03-19T10:48:53.804Z,0.3
2023-03-19T10:50:03.506Z,0.5
2023-03-19T10:51:13.168Z,0.4
2023-03-19T10:52:22.833Z,0.5
2023-03-19T10:53:32.484Z,0.5
2023-03-19T10:54:41.139Z,0.6
2023-03-19T10:55:49.804Z,0.5
2023-03-19T10:56:59.498Z,0.7
2023-03-19T10:58:08.148Z,0.7
2023-03-19T10:59:17.798Z,0.7
2023-03-19T11:00:27.446Z,0.6
2023-03-19T11:01:37.150Z,0.5
2023-03-19T11:02:46.808Z,0.8
2023-03-19T11:03:55.662Z,0.7
2023-03-19T11:05:04.115Z,0.5
2023-03-19T11:06:13.819Z,0.6
2023-03-19T11:07:22.455Z,0.4
2023-03-19T11:08:35.710Z,0.5
2023-03-19T11:09:41.736Z,0.4
2023-03-19T11:10:51.384Z,0.4
2023-03-19T11:12:01.067Z,0.5
2023-03-19T11:13:08.708Z,0.3
2023-03-19T11:14:18.385Z,0.2
2023-03-19T11:15:28.047Z,0.5
2023-03-19T11:16:36.803Z,0.2
2023-03-19T11:17:46.391Z,0.3
2023-03-19T11:18:56.043Z,0.5
2023-03-19T11:20:04.699Z,0.3
2023-03-19T11:21:14.439Z,0.5
2023-03-19T11:22:23.187Z,0.5
2023-03-19T11:23:31.794Z,0.4
2023-03-19T11:24:41.450Z,0.3
2023-03-19T11:25:50.108Z,0.4
2023-03-19T11:26:59.835Z,0.4
2023-03-19T11:28:09.498Z,0.3
2023-03-19T11:29:17.153Z,0.3
2023-03-19T11:30:26.822Z,0.3
2023-03-19T11:31:35.510Z,0.3
2023-03-19T11:32:45.275Z,0.5
2023-03-19T11:33:54.902Z,0.5
2023-03-19T11:35:04.531Z,0.8
2023-03-19T11:36:14.338Z,0.6
2023-03-19T11:37:23.891Z,0.5
2023-03-19T11:38:32.580Z,0.4
2023-03-19T11:39:42.260Z,0.4
2023-03-19T11:40:50.907Z,0.6
2023-03-19T11:42:00.296Z,0.5
2023-03-19T11:43:09.948Z,0.6
2023-03-19T11:44:17.603Z,0.4
2023-03-19T11:45:27.256Z,0.3
2023-03-19T11:46:37.009Z,0.3
2023-03-19T11:47:46.748Z,0.4
2023-03-19T11:48:56.428Z,0.3
2023-03-19T11:50:05.123Z,0.5
2023-03-19T11:51:14.807Z,0.5
2023-03-19T11:52:24.492Z,0.7
2023-03-19T11:53:34.207Z,0.6
2023-03-19T11:54:43.961Z,0.7
2023-03-19T11:55:53.622Z,0.8
2023-03-19T11:57:03.305Z,0.7
2023-03-19T11:58:11.987Z,0.6
2023-03-19T11:59:21.667Z,0.5
2023-03-19T12:00:31.365Z,0.5
2023-03-19T12:01:40.016Z,0.5
2023-03-19T12:02:49.767Z,0.3
2023-03-19T12:03:59.400Z,0.3
2023-03-19T12:05:08.061Z,0.3
2023-03-19T12:06:17.757Z,0.4
2023-03-19T12:07:26.424Z,0.4
2023-03-19T12:08:34.104Z,0.4
2023-03-19T12:09:43.780Z,0.4
2023-03-19T12:10:51.493Z,0.3
2023-03-19T12:12:00.166Z,0.3
2023-03-19T12:13:09.843Z,0.4
2023-03-19T12:14:17.541Z,0.2
2023-03-19T12:15:27.280Z,0.4
2023-03-19T12:16:41.366Z,0.2
2023-03-19T12:17:47.628Z,0.4
2023-03-19T12:18:57.284Z,0.4
2023-03-19T12:20:06.011Z,0.4
2023-03-19T12:21:15.740Z,0.5
2023-03-19T12:22:25.436Z,0.5
2023-03-19T12:23:35.973Z,0.4
2023-03-19T12:24:44.832Z,0.2
2023-03-19T12:25:53.568Z,0.2
2023-03-19T12:27:02.228Z,0.3
2023-03-19T12:28:11.896Z,0.5
2023-03-19T12:29:21.572Z,0.3
2023-03-19T12:30:30.292Z,0.4
2023-03-19T12:31:39.959Z,0.3
2023-03-19T12:32:47.689Z,0.3
2023-03-19T12:33:57.335Z,0.3
2023-03-19T12:35:07.029Z,0.4
2023-03-19T12:36:16.754Z,0.3
2023-03-19T12:37:26.424Z,0.3
2023-03-19T12:38:36.120Z,0.4
2023-03-19T12:39:44.781Z,0.3
2023-03-19T12:40:54.506Z,0.4
2023-03-19T12:42:03.205Z,0.4
2023-03-19T12:43:12.878Z,0.2
2023-03-19T12:44:22.532Z,0.4
2023-03-19T12:45:30.230Z,0.4
2023-03-19T12:46:38.972Z,0.3
2023-03-19T12:47:47.621Z,0.3
2023-03-19T12:48:56.292Z,0.5
2023-03-19T12:50:05.959Z,0.4
2023-03-19T12:51:15.702Z,0.2
2023-03-19T12:52:25.392Z,0.1
2023-03-19T12:53:35.058Z,0.2
2023-03-19T12:54:44.747Z,0.2
2023-03-19T12:55:54.448Z,0.4
2023-03-19T12:57:04.141Z,0.2
2023-03-19T12:58:12.825Z,0.2
2023-03-19T12:59:22.500Z,0.2
2023-03-19T13:00:31.272Z,0.2
2023-03-19T13:01:41.079Z,0.1
2023-03-19T13:02:50.606Z,0.3
2023-03-19T13:04:00.244Z,0.2
2023-03-19T13:05:09.945Z,0.1
2023-03-19T13:06:19.622Z,0.3
2023-03-19T13:07:29.294Z,0.3
2023-03-19T13:08:38.944Z,0.3
2023-03-19T13:09:48.636Z,0.4
2023-03-19T13:11:00.109Z,0.2
2023-03-19T13:12:09.018Z,0.1
2023-03-19T13:13:17.887Z,0.1
2023-03-19T13:14:27.396Z,0.2
2023-03-19T13:15:36.061Z,0.3
2023-03-19T13:16:44.762Z,0.4
2023-03-19T13:17:54.428Z,0.2
2023-03-19T13:19:03.089Z,0.3
2023-03-19T13:20:11.764Z,0.1
2023-03-19T13:21:20.449Z,0.2
2023-03-19T13:22:28.139Z,0.3
2023-03-19T13:23:37.800Z,0.3
2023-03-19T13:24:47.464Z,0.2
2023-03-19T13:25:57.194Z,0.2
2023-03-19T13:27:06.007Z,0.2
2023-03-19T13:28:13.652Z,0.2
2023-03-19T13:29:23.337Z,0.2
2023-03-19T13:30:32.218Z,0.5
2023-03-19T13:31:40.783Z,0.4
2023-03-19T13:32:50.450Z,0.3
2023-03-19T13:34:00.098Z,0.2
2023-03-19T13:35:09.763Z,0.4
2023-03-19T13:36:19.461Z,0.4
2023-03-19T13:37:28.172Z,0.2
2023-03-19T13:38:37.841Z,0.1
2023-03-19T13:39:46.515Z,0.2
2023-03-19T13:40:55.184Z,0.2
2023-03-19T13:42:04.860Z,0.3
2023-03-19T13:43:27.400Z,0.5
2023-03-19T13:44:25.205Z,0.2
2023-03-19T13:45:34.861Z,0.4
2023-03-19T13:46:43.595Z,0.2
2023-03-19T13:47:53.271Z,0.4
2023-03-19T13:49:01.928Z,0.3
2023-03-19T13:50:10.762Z,0.3
2023-03-19T13:51:20.360Z,0.2
2023-03-19T13:52:30.010Z,0.2
2023-03-19T13:53:38.676Z,0.3
2023-03-19T13:54:48.349Z,0.2
2023-03-19T13:55:58.040Z,0.3
2023-03-19T13:57:07.768Z,0.3
2023-03-19T13:58:16.370Z,0.2
2023-03-19T13:59:26.036Z,0.2
2023-03-19T14:00:36.068Z,0.3
2023-03-19T14:01:44.411Z,0.4
2023-03-19T14:02:54.083Z,0.6
2023-03-19T14:04:02.862Z,0.5
2023-03-19T14:05:11.517Z,0.2
2023-03-19T14:06:21.199Z,0.2
2023-03-19T14:07:29.823Z,0.3
2023-03-19T14:08:39.534Z,0.5
2023-03-19T14:09:49.354Z,0.5
2023-03-19T14:10:57.909Z,0.5
2023-03-19T14:12:06.586Z,0.4
2023-03-19T14:13:16.278Z,0.8
2023-03-19T14:14:25.955Z,0.3
2023-03-19T14:15:35.682Z,0.4
2023-03-19T14:16:44.380Z,0.4
2023-03-19T14:17:54.100Z,0.4
2023-03-19T14:19:04.888Z,0.2
2023-03-19T14:20:15.958Z,0.1
2023-03-19T14:21:24.998Z,0.4
2023-03-19T14:22:32.692Z,0.3
2023-03-19T14:23:44.214Z,0.4
2023-03-19T14:24:56.535Z,0.3
2023-03-19T14:26:01.624Z,0.3
2023-03-19T14:27:11.282Z,0.3
2023-03-19T14:28:20.933Z,0.3
2023-03-19T14:29:30.604Z,0.5
2023-03-19T14:30:40.320Z,0.3
2023-03-19T14:31:49.053Z,0.3
2023-03-19T14:32:58.701Z,0.4
2023-03-19T14:34:08.331Z,0.4
2023-03-19T14:35:18.020Z,0.4
2023-03-19T14:36:27.772Z,0.3
2023-03-19T14:37:37.429Z,0.3
2023-03-19T14:38:46.092Z,0.3
2023-03-19T14:39:55.757Z,0.4
2023-03-19T14:41:03.446Z,0.5
2023-03-19T14:42:12.104Z,0.5
2023-03-19T14:43:21.763Z,0.5
2023-03-19T14:44:30.406Z,0.4
2023-03-19T14:45:40.156Z,0.5
2023-03-19T14:46:48.748Z,0.4
2023-03-19T14:47:57.426Z,0.5
2023-03-19T14:49:07.062Z,0.3
2023-03-19T14:50:15.723Z,0.6
2023-03-19T14:51:24.411Z,0.4
2023-03-19T14:52:34.104Z,0.5
2023-03-19T14:53:43.804Z,0.5
2023-03-19T14:54:53.462Z,0.7
2023-03-19T14:56:02.119Z,0.3
2023-03-19T14:57:11.788Z,0.3
2023-03-19T14:58:21.446Z,0.3
2023-03-19T14:59:30.100Z,0.1
2023-03-19T15:00:38.779Z,0.2
2023-03-19T15:01:48.479Z,0.4
2023-03-19T15:02:57.174Z,0.4
2023-03-19T15:04:06.861Z,0.3
2023-03-19T15:05:16.601Z,0.5
2023-03-19T15:06:25.220Z,0.4
2023-03-19T15:07:34.894Z,0.3
2023-03-19T15:08:43.560Z,0.3
2023-03-19T15:09:52.261Z,0.3
2023-03-19T15:11:01.914Z,0.1
2023-03-19T15:12:11.605Z,0.2
2023-03-19T15:13:21.296Z,0.2
2023-03-19T15:14:29.941Z,0.2
2023-03-19T15:15:38.657Z,0.2
2023-03-19T15:16:48.405Z,0.3
2023-03-19T15:18:03.682Z,0.3
2023-03-19T15:19:08.661Z,0.3
2023-03-19T15:20:17.285Z,0.5
2023-03-19T15:21:25.972Z,0.4
2023-03-19T15:22:35.665Z,0.3
2023-03-19T15:23:45.307Z,0.1
2023-03-19T15:24:53.012Z,0.2
2023-03-19T15:26:02.681Z,0.4
2023-03-19T15:27:11.358Z,0.2
2023-03-19T15:28:21.017Z,0.1
2023-03-19T15:29:29.656Z,0.4
2023-03-19T15:30:52.143Z,0.5
2023-03-19T15:31:57.445Z,0.2
2023-03-19T15:33:14.612Z,0.2
2023-03-19T15:34:10.416Z,0.4
2023-03-19T15:35:20.222Z,0.3
2023-03-19T15:36:29.663Z,0.3
2023-03-19T15:37:38.378Z,0.4
2023-03-19T15:38:48.048Z,0.3
2023-03-19T15:39:57.724Z,0.3
2023-03-19T15:41:07.414Z,0.2
2023-03-19T15:42:16.139Z,0.3
2023-03-19T15:43:24.778Z,0.3
2023-03-19T15:44:34.457Z,0.2
2023-03-19T15:45:43.134Z,0.3
2023-03-19T15:46:52.845Z,0.4
2023-03-19T15:48:01.532Z,0.3
2023-03-19T15:49:11.261Z,0.1
2023-03-19T15:50:20.925Z,0.6
2023-03-19T15:51:29.627Z,0.5
2023-03-19T15:52:39.329Z,0.3
2023-03-19T15:53:47.982Z,0.2
2023-03-19T15:54:56.640Z,0.4
2023-03-19T15:56:06.338Z,0.5
2023-03-19T15:57:16.016Z,0.3
2023-03-19T15:58:25.676Z,0.3